createdAt,value
2018-10-12T00:00:35.385Z,100398.33
2018-10-12T00:03:04.040Z,100395.48
2018-10-12T00:05:32.624Z,100401.48
2018-10-12T00:08:01.232Z,100404.02
2018-10-12T00:10:29.810Z,100402.41
2018-10-12T00:12:58.344Z,100406.05
2018-10-12T00:15:27.300Z,100400.36
2018-10-12T00:17:56.489Z,100402.99
2018-10-12T00:20:25.061Z,100404.38
2018-10-12T00:22:53.825Z,100415.72
2018-10-12T00:25:22.804Z,100416.67
2018-10-12T00:27:51.552Z,100420.08
2018-10-12T00:30:20.537Z,100417.00
2018-10-12T00:32:49.065Z,100410.87
2018-10-12T00:35:17.616Z,100408.66
2018-10-12T00:37:46.193Z,100409.16
2018-10-12T00:40:14.768Z,100401.58
2018-10-12T00:42:43.392Z,100396.66
2018-10-12T00:45:12.514Z,100401.19
2018-10-12T00:47:41.184Z,100405.47
2018-10-12T00:50:09.945Z,100399.97
2018-10-12T00:52:38.621Z,100405.59
2018-10-12T00:55:07.368Z,100411.44
2018-10-12T00:57:36.198Z,100415.65
2018-10-12T01:00:04.926Z,100424.27
2018-10-12T01:02:33.532Z,100430.02
2018-10-12T01:05:02.174Z,100433.66
2018-10-12T01:07:30.829Z,100434.73
2018-10-12T01:09:59.500Z,100448.10
2018-10-12T01:12:34.472Z,100447.89
2018-10-12T01:15:03.601Z,100446.09
2018-10-12T01:17:33.350Z,100452.20
2018-10-12T01:20:02.672Z,100444.86
2018-10-12T01:22:31.344Z,100438.52
2018-10-12T01:25:01.521Z,100441.03
2018-10-12T01:27:30.832Z,100438.83
2018-10-12T01:29:59.448Z,100453.27
2018-10-12T01:32:33.228Z,100444.50
2018-10-12T01:35:01.853Z,100451.27
2018-10-12T01:37:30.555Z,100442.83
2018-10-12T01:39:59.124Z,100443.99
2018-10-12T01:42:27.726Z,100444.20
2018-10-12T01:44:57.068Z,100446.70
2018-10-12T01:47:25.699Z,100445.54
2018-10-12T01:49:54.357Z,100452.97
2018-10-12T01:52:22.912Z,100447.11
2018-10-12T01:54:51.728Z,100451.97
2018-10-12T01:57:20.328Z,100447.36
2018-10-12T01:59:49.172Z,100446.48
2018-10-12T02:02:18.133Z,100446.69
2018-10-12T02:04:46.762Z,100448.48
2018-10-12T02:07:15.337Z,100452.97
2018-10-12T02:09:44.029Z,100464.71
2018-10-12T02:12:12.592Z,100472.92
2018-10-12T02:14:41.133Z,100478.64
2018-10-12T02:17:09.743Z,100481.22
2018-10-12T02:19:38.380Z,100488.75
2018-10-12T02:22:06.990Z,100493.98
2018-10-12T02:24:35.829Z,100487.47
2018-10-12T02:27:04.426Z,100497.51
2018-10-12T02:29:32.968Z,100494.20
2018-10-12T02:32:01.545Z,100500.11
2018-10-12T02:34:30.141Z,100501.17
2018-10-12T02:36:59.284Z,100486.91
2018-10-12T02:39:27.897Z,100493.78
2018-10-12T02:41:56.568Z,100495.34
2018-10-12T02:44:25.092Z,100493.55
2018-10-12T02:46:53.789Z,100489.98
2018-10-12T02:49:22.365Z,100489.74
2018-10-12T02:51:51.025Z,100500.43
2018-10-12T02:54:19.608Z,100514.20
2018-10-12T02:56:48.250Z,100520.20
2018-10-12T02:59:16.940Z,100520.66
2018-10-12T03:01:45.593Z,100529.35
2018-10-12T03:04:14.260Z,100525.12
2018-10-12T03:06:42.944Z,100526.78
2018-10-12T03:09:12.905Z,100526.03
2018-10-12T03:11:41.925Z,100525.33
2018-10-12T03:14:10.560Z,100529.89
2018-10-12T03:16:39.200Z,100529.69
2018-10-12T03:19:07.767Z,100519.40
2018-10-12T03:21:36.349Z,100513.99
2018-10-12T03:24:05.048Z,100508.34
2018-10-12T03:26:33.581Z,100511.09
2018-10-12T03:29:02.149Z,100518.39
2018-10-12T03:31:30.846Z,100513.25
2018-10-12T03:33:59.417Z,100528.11
2018-10-12T03:36:28.421Z,100521.22
2018-10-12T03:38:57.093Z,100528.20
2018-10-12T03:41:25.793Z,100527.45
2018-10-12T03:43:54.460Z,100534.63
2018-10-12T03:46:23.085Z,100549.66
2018-10-12T03:48:51.629Z,100548.16
2018-10-12T03:51:20.240Z,100555.77
2018-10-12T03:53:49.004Z,100552.59
2018-10-12T03:56:17.613Z,100554.02
2018-10-12T03:58:46.141Z,100565.60
2018-10-12T04:01:14.748Z,100557.55
2018-10-12T04:03:43.405Z,100558.95
2018-10-12T04:06:12.081Z,100573.41
2018-10-12T04:08:40.725Z,100587.69
2018-10-12T04:11:09.336Z,100596.83
2018-10-12T04:13:37.908Z,100593.30
2018-10-12T04:16:06.517Z,100594.30
2018-10-12T04:18:35.112Z,100596.91
2018-10-12T04:21:03.648Z,100614.41
2018-10-12T04:23:32.292Z,100614.16
2018-10-12T04:26:00.877Z,100611.92
2018-10-12T04:28:29.804Z,100615.92
2018-10-12T04:30:58.452Z,100627.51
2018-10-12T04:33:27.420Z,100625.72
2018-10-12T04:35:56.032Z,100631.37
2018-10-12T04:38:24.849Z,100635.57
2018-10-12T04:41:01.814Z,100637.27
2018-10-12T04:43:31.128Z,100631.86
2018-10-12T04:46:00.529Z,100631.75
2018-10-12T04:48:29.516Z,100630.25
2018-10-12T04:50:58.180Z,100643.42
2018-10-12T04:53:26.830Z,100651.06
2018-10-12T04:55:55.429Z,100652.34
2018-10-12T04:58:24.232Z,100652.06
2018-10-12T05:00:52.935Z,100652.98
2018-10-12T05:03:21.500Z,100656.80
2018-10-12T05:05:50.153Z,100657.05
2018-10-12T05:08:19.117Z,100668.31
2018-10-12T05:10:47.816Z,100670.89
2018-10-12T05:13:16.641Z,100676.91
2018-10-12T05:15:45.197Z,100670.50
2018-10-12T05:18:13.782Z,100657.78
2018-10-12T05:20:42.409Z,100657.28
2018-10-12T05:23:11.073Z,100644.63
2018-10-12T05:25:39.668Z,100647.05
2018-10-12T05:28:08.441Z,100652.98
2018-10-12T05:30:36.964Z,100647.06
2018-10-12T05:33:05.633Z,100648.62
2018-10-12T05:35:34.517Z,100671.11
2018-10-12T05:38:03.340Z,100679.52
2018-10-12T05:40:31.937Z,100679.52
2018-10-12T05:43:01.295Z,100681.16
2018-10-12T05:45:29.789Z,100685.33
2018-10-12T05:48:09.623Z,100683.41
2018-10-12T05:50:38.285Z,100692.96
2018-10-12T05:53:07.096Z,100701.60
2018-10-12T05:55:36.612Z,100709.84
2018-10-12T05:58:05.592Z,100716.31
2018-10-12T06:00:34.197Z,100717.38
2018-10-12T06:03:02.797Z,100724.55
2018-10-12T06:05:31.421Z,100723.72
2018-10-12T06:07:59.999Z,100730.23
2018-10-12T06:10:28.629Z,100735.83
2018-10-12T06:12:57.210Z,100736.53
2018-10-12T06:15:26.700Z,100743.69
2018-10-12T06:17:55.352Z,100752.95
2018-10-12T06:20:23.886Z,100759.19
2018-10-12T06:22:52.434Z,100751.91
2018-10-12T06:25:21.084Z,100758.27
2018-10-12T06:27:49.720Z,100766.67
2018-10-12T06:30:18.373Z,100767.05
2018-10-12T06:32:47.096Z,100770.55
2018-10-12T06:35:15.641Z,100760.42
2018-10-12T06:37:44.156Z,100760.61
2018-10-12T06:40:12.970Z,100776.30
2018-10-12T06:42:41.645Z,100786.05
2018-10-12T06:45:10.309Z,100784.64
2018-10-12T06:47:38.941Z,100791.17
2018-10-12T06:50:07.943Z,100783.77
2018-10-12T06:52:36.944Z,100791.55
2018-10-12T06:55:05.904Z,100801.37
2018-10-12T06:57:34.554Z,100795.58
2018-10-12T07:00:03.303Z,100803.58
2018-10-12T07:02:32.156Z,100801.02
2018-10-12T07:05:01.104Z,100798.21
2018-10-12T07:07:29.816Z,100805.02
2018-10-12T07:09:58.586Z,100799.83
2018-10-12T07:12:27.248Z,100798.72
2018-10-12T07:14:55.852Z,100792.59
2018-10-12T07:17:24.576Z,100798.00
2018-10-12T07:19:53.150Z,100806.31
2018-10-12T07:22:21.828Z,100808.67
2018-10-12T07:24:50.440Z,100800.88
2018-10-12T07:27:18.997Z,100810.47
2018-10-12T07:29:47.663Z,100812.72
2018-10-12T07:32:16.284Z,100819.50
2018-10-12T07:34:44.904Z,100824.36
2018-10-12T07:37:13.592Z,100832.80
2018-10-12T07:39:42.265Z,100831.43
2018-10-12T07:42:10.818Z,100833.17
2018-10-12T07:44:39.387Z,100830.98
2018-10-12T07:47:08.503Z,100835.69
2018-10-12T07:49:37.126Z,100840.27
2018-10-12T07:52:05.813Z,100845.67
2018-10-12T07:54:34.480Z,100846.83
2018-10-12T07:57:08.287Z,100846.42
2018-10-12T07:59:37.173Z,100837.09
2018-10-12T08:02:05.764Z,100836.02
2018-10-12T08:04:34.355Z,100844.36
2018-10-12T08:07:03.021Z,100851.44
2018-10-12T08:09:31.628Z,100846.02
2018-10-12T08:12:00.196Z,100850.22
2018-10-12T08:14:29.153Z,100840.86
2018-10-12T08:16:57.934Z,100844.50
2018-10-12T08:19:26.505Z,100851.38
2018-10-12T08:21:55.173Z,100851.23
2018-10-12T08:24:23.872Z,100848.55
2018-10-12T08:26:52.517Z,100854.13
2018-10-12T08:29:24.289Z,100857.13
2018-10-12T08:31:53.061Z,100855.38
2018-10-12T08:34:21.653Z,100859.48
2018-10-12T08:36:50.630Z,100865.50
2018-10-12T08:39:19.216Z,100866.98
2018-10-12T08:41:47.846Z,100862.23
2018-10-12T08:44:16.768Z,100864.19
2018-10-12T08:46:45.376Z,100866.98
2018-10-12T08:49:13.921Z,100870.98
2018-10-12T08:51:42.465Z,100874.86
2018-10-12T08:54:11.076Z,100874.84
2018-10-12T08:56:39.916Z,100864.98
2018-10-12T08:59:09.226Z,100871.60
2018-10-12T09:01:37.884Z,100871.88
2018-10-12T09:04:06.600Z,100872.53
2018-10-12T09:06:35.177Z,100868.27
2018-10-12T09:09:05.556Z,100865.30
2018-10-12T09:11:34.281Z,100868.09
2018-10-12T09:14:02.868Z,100860.45
2018-10-12T09:16:31.497Z,100861.92
2018-10-12T09:19:00.181Z,100858.31
2018-10-12T09:21:29.121Z,100862.12
2018-10-12T09:23:57.680Z,100864.10
2018-10-12T09:26:26.633Z,100861.72
2018-10-12T09:28:55.280Z,100871.57
2018-10-12T09:31:23.876Z,100867.15
2018-10-12T09:33:52.528Z,100868.29
2018-10-12T09:36:21.263Z,100873.76
2018-10-12T09:38:49.805Z,100871.68
2018-10-12T09:41:18.517Z,100864.09
2018-10-12T09:43:47.042Z,100869.09
2018-10-12T09:46:15.608Z,100862.16
2018-10-12T09:48:44.230Z,100863.05
2018-10-12T09:51:12.868Z,100872.82
2018-10-12T09:53:41.540Z,100867.66
2018-10-12T09:56:10.240Z,100859.59
2018-10-12T09:58:38.851Z,100861.34
2018-10-12T10:01:12.648Z,100861.36
2018-10-12T10:03:46.364Z,100860.11
2018-10-12T10:06:15.028Z,100854.39
2018-10-12T10:08:43.829Z,100856.19
2018-10-12T10:11:12.397Z,100845.57
2018-10-12T10:13:41.223Z,100850.73
2018-10-12T10:16:09.778Z,100845.41
2018-10-12T10:18:38.340Z,100846.48
2018-10-12T10:21:07.017Z,100845.62
2018-10-12T10:23:35.937Z,100841.36
2018-10-12T10:26:04.611Z,100834.73
2018-10-12T10:28:33.206Z,100838.66
2018-10-12T10:31:01.925Z,100841.72
2018-10-12T10:33:30.521Z,100838.27
2018-10-12T10:35:59.120Z,100840.21
2018-10-12T10:38:27.661Z,100840.48
2018-10-12T10:40:56.244Z,100842.53
2018-10-12T10:43:24.897Z,100842.28
2018-10-12T10:45:53.489Z,100831.05
2018-10-12T10:48:22.269Z,100831.23
2018-10-12T10:50:50.877Z,100829.53
2018-10-12T10:53:19.488Z,100827.31
2018-10-12T10:55:48.109Z,100827.14
2018-10-12T10:58:16.784Z,100821.39
2018-10-12T11:00:45.368Z,100817.48
2018-10-12T11:03:13.934Z,100817.98
2018-10-12T11:05:42.596Z,100807.78
2018-10-12T11:08:11.176Z,100803.44
2018-10-12T11:10:39.713Z,100800.70
2018-10-12T11:13:08.485Z,100803.69
2018-10-12T11:15:37.113Z,100796.18
2018-10-12T11:18:06.126Z,100790.13
2018-10-12T11:20:34.748Z,100792.86
2018-10-12T11:23:03.329Z,100788.86
2018-10-12T11:25:31.906Z,100785.80
2018-10-12T11:28:00.517Z,100784.58
2018-10-12T11:30:29.096Z,100777.39
2018-10-12T11:32:57.843Z,100781.44
2018-10-12T11:35:26.430Z,100778.58
2018-10-12T11:37:55.567Z,100782.39
2018-10-12T11:40:24.161Z,100775.98
2018-10-12T11:43:03.841Z,100771.28
2018-10-12T11:45:32.490Z,100770.72
2018-10-12T11:48:01.065Z,100777.77
2018-10-12T11:50:29.637Z,100765.98
2018-10-12T11:52:58.232Z,100761.66
2018-10-12T11:55:26.837Z,100758.98
2018-10-12T11:57:55.689Z,100757.73
2018-10-12T12:00:24.344Z,100762.98
2018-10-12T12:02:52.941Z,100759.68
2018-10-12T12:05:21.599Z,100756.50
2018-10-12T12:07:50.105Z,100759.68
2018-10-12T12:10:18.617Z,100758.59
2018-10-12T12:12:47.277Z,100751.87
2018-10-12T12:15:15.938Z,100751.33
2018-10-12T12:17:44.529Z,100750.05
2018-10-12T12:20:13.241Z,100755.66
2018-10-12T12:22:42.161Z,100747.98
2018-10-12T12:25:10.700Z,100747.62
2018-10-12T12:27:39.359Z,100746.27
2018-10-12T12:30:08.037Z,100740.58
2018-10-12T12:32:36.563Z,100743.17
2018-10-12T12:35:05.431Z,100740.69
2018-10-12T12:37:33.893Z,100736.30
2018-10-12T12:40:02.617Z,100740.69
2018-10-12T12:42:31.364Z,100734.41
2018-10-12T12:44:59.890Z,100737.62
2018-10-12T12:47:28.562Z,100735.78
2018-10-12T12:49:57.344Z,100734.43
2018-10-12T12:52:26.003Z,100736.27
2018-10-12T12:54:54.552Z,100735.51
2018-10-12T12:57:23.116Z,100739.84
2018-10-12T12:59:51.804Z,100737.73
2018-10-12T13:02:20.360Z,100743.42
2018-10-12T13:04:48.900Z,100741.96
2018-10-12T13:07:17.511Z,100742.45
2018-10-12T13:09:46.149Z,100743.07
2018-10-12T13:12:14.765Z,100741.23
2018-10-12T13:14:43.704Z,100733.80
2018-10-12T13:17:12.404Z,100739.13
2018-10-12T13:19:41.232Z,100746.17
2018-10-12T13:22:09.882Z,100747.41
2018-10-12T13:24:38.420Z,100744.55
2018-10-12T13:27:06.970Z,100741.21
2018-10-12T13:29:35.768Z,100738.23
2018-10-12T13:32:04.418Z,100745.94
2018-10-12T13:34:33.010Z,100745.80
2018-10-12T13:37:01.637Z,100746.52
2018-10-12T13:39:30.274Z,100750.11
2018-10-12T13:41:58.966Z,100747.03
2018-10-12T13:44:27.657Z,100748.52
2018-10-12T13:46:56.230Z,100754.55
2018-10-12T13:49:24.886Z,100756.56
2018-10-12T13:51:53.557Z,100753.86
2018-10-12T13:54:22.195Z,100758.91
2018-10-12T13:56:55.019Z,100750.50
2018-10-12T13:59:23.557Z,100756.31
2018-10-12T14:01:52.110Z,100753.70
2018-10-12T14:04:20.745Z,100750.77
2018-10-12T14:06:49.429Z,100751.73
2018-10-12T14:09:18.091Z,100741.47
2018-10-12T14:11:46.665Z,100750.75
2018-10-12T14:14:15.362Z,100748.03
2018-10-12T14:16:43.893Z,100751.23
2018-10-12T14:19:12.824Z,100749.50
2018-10-12T14:21:41.237Z,100754.55
2018-10-12T14:24:09.793Z,100752.70
2018-10-12T14:26:38.530Z,100750.60
2018-10-12T14:29:07.096Z,100754.33
2018-10-12T14:31:35.757Z,100756.58
2018-10-12T14:34:04.311Z,100757.81
2018-10-12T14:36:32.825Z,100754.46
2018-10-12T14:39:01.474Z,100755.09
2018-10-12T14:41:30.129Z,100758.89
2018-10-12T14:43:58.888Z,100762.02
2018-10-12T14:46:27.381Z,100759.39
2018-10-12T14:48:56.001Z,100757.28
2018-10-12T14:51:24.612Z,100758.67
2018-10-12T14:53:53.205Z,100761.14
2018-10-12T14:56:21.809Z,100757.17
2018-10-12T14:58:50.340Z,100762.51
2018-10-12T15:01:18.878Z,100758.43
2018-10-12T15:03:47.430Z,100757.31
2018-10-12T15:06:16.447Z,100763.36
2018-10-12T15:08:45.095Z,100758.06
2018-10-12T15:11:13.768Z,100764.99
2018-10-12T15:13:42.337Z,100761.89
2018-10-12T15:16:10.956Z,100764.24
2018-10-12T15:18:39.693Z,100756.56
2018-10-12T15:21:08.339Z,100765.22
2018-10-12T15:23:36.953Z,100761.86
2018-10-12T15:26:05.660Z,100759.26
2018-10-12T15:28:34.226Z,100768.55
2018-10-12T15:31:02.766Z,100759.41
2018-10-12T15:33:31.644Z,100765.58
2018-10-12T15:36:00.205Z,100768.78
2018-10-12T15:38:28.839Z,100775.08
2018-10-12T15:40:57.429Z,100768.13
2018-10-12T15:43:26.024Z,100769.88
2018-10-12T15:45:54.576Z,100767.18
2018-10-12T15:48:23.210Z,100765.82
2018-10-12T15:50:51.896Z,100772.94
2018-10-12T15:53:20.472Z,100770.71
2018-10-12T15:55:49.136Z,100775.98
2018-10-12T15:58:17.675Z,100774.12
2018-10-12T16:00:46.245Z,100769.87
2018-10-12T16:03:14.885Z,100773.77
2018-10-12T16:05:43.485Z,100769.25
2018-10-12T16:08:12.112Z,100769.44
2018-10-12T16:10:40.796Z,100774.78
2018-10-12T16:13:09.429Z,100773.97
2018-10-12T16:15:38.024Z,100779.77
2018-10-12T16:18:06.909Z,100778.12
2018-10-12T16:20:35.596Z,100776.02
2018-10-12T16:23:05.061Z,100777.84
2018-10-12T16:25:56.382Z,100779.10
2018-10-12T16:28:25.316Z,100778.16
2018-10-12T16:30:54.857Z,100782.67
2018-10-12T16:33:24.056Z,100782.41
2018-10-12T16:35:53.957Z,100784.56
2018-10-12T16:38:22.981Z,100783.73
2018-10-12T16:40:51.873Z,100779.38
2018-10-12T16:43:20.468Z,100784.22
2018-10-12T16:45:50.320Z,100785.21
2018-10-12T16:48:19.036Z,100788.09
2018-10-12T16:50:47.740Z,100795.53
2018-10-12T16:53:16.372Z,100806.91
2018-10-12T16:55:45.038Z,100808.66
2018-10-12T16:58:14.655Z,100799.31
2018-10-12T17:00:43.621Z,100799.69
2018-10-12T17:03:12.446Z,100801.98
2018-10-12T17:05:41.025Z,100806.80
2018-10-12T17:08:09.589Z,100816.64
2018-10-12T17:10:38.180Z,100818.03
2018-10-12T17:13:06.800Z,100814.79
2018-10-12T17:15:35.433Z,100820.83
2018-10-12T17:18:04.010Z,100824.16
2018-10-12T17:20:32.616Z,100829.07
2018-10-12T17:23:01.135Z,100832.48
2018-10-12T17:25:29.733Z,100832.03
2018-10-12T17:27:58.349Z,100829.36
2018-10-12T17:30:26.969Z,100838.08
2018-10-12T17:32:55.728Z,100835.56
2018-10-12T17:35:24.376Z,100836.05
2018-10-12T17:37:52.905Z,100837.91
2018-10-12T17:40:21.645Z,100838.22
2018-10-12T17:42:50.320Z,100838.75
2018-10-12T17:45:18.901Z,100849.78
2018-10-12T17:47:47.581Z,100840.35
2018-10-12T17:50:16.114Z,100840.35
2018-10-12T17:52:44.665Z,100841.17
2018-10-12T17:55:13.320Z,100844.87
2018-10-12T17:57:41.877Z,100842.66
2018-10-12T18:00:11.014Z,100848.27
2018-10-12T18:02:39.601Z,100850.00
2018-10-12T18:05:08.871Z,100852.61
2018-10-12T18:07:37.564Z,100845.17
2018-10-12T18:10:07.222Z,100860.72
2018-10-12T18:12:35.837Z,100858.56
2018-10-12T18:15:05.008Z,100861.08
2018-10-12T18:17:33.640Z,100865.30
2018-10-12T18:20:02.269Z,100874.00
2018-10-12T18:22:30.873Z,100873.86
2018-10-12T18:24:59.488Z,100866.16
2018-10-12T18:27:28.044Z,100862.14
2018-10-12T18:29:56.673Z,100864.34
2018-10-12T18:32:25.297Z,100857.48
2018-10-12T18:34:53.965Z,100857.55
2018-10-12T18:37:22.532Z,100867.42
2018-10-12T18:39:51.217Z,100869.31
2018-10-12T18:42:19.957Z,100871.56
2018-10-12T18:44:48.658Z,100882.62
2018-10-12T18:47:17.276Z,100878.34
2018-10-12T18:49:45.794Z,100877.19
2018-10-12T18:52:14.459Z,100881.20
2018-10-12T18:54:43.249Z,100884.56
2018-10-12T18:57:11.773Z,100883.52
2018-10-12T18:59:40.386Z,100882.13
2018-10-12T19:02:08.961Z,100890.60
2018-10-12T19:04:37.691Z,100884.87
2018-10-12T19:07:06.125Z,100884.87
2018-10-12T19:09:34.757Z,100895.56
2018-10-12T19:12:03.416Z,100885.70
2018-10-12T19:14:31.973Z,100887.98
2018-10-12T19:17:00.829Z,100893.77
2018-10-12T19:19:29.638Z,100897.26
2018-10-12T19:21:58.376Z,100894.58
2018-10-12T19:24:27.057Z,100893.05
2018-10-12T19:26:55.591Z,100902.90
2018-10-12T19:29:24.305Z,100894.23
2018-10-12T19:31:52.963Z,100899.66
2018-10-12T19:34:21.507Z,100906.41
2018-10-12T19:36:50.260Z,100907.04
2018-10-12T19:39:18.939Z,100908.96
2018-10-12T19:41:47.839Z,100918.62
2018-10-12T19:44:16.500Z,100912.09
2018-10-12T19:46:45.150Z,100909.47
2018-10-12T19:49:14.004Z,100909.63
2018-10-12T19:51:42.681Z,100919.69
2018-10-12T19:54:11.233Z,100923.41
2018-10-12T19:56:40.074Z,100925.45
2018-10-12T19:59:08.763Z,100924.09
2018-10-12T20:01:37.346Z,100922.28
2018-10-12T20:04:06.040Z,100919.32
2018-10-12T20:06:34.646Z,100919.73
2018-10-12T20:09:04.061Z,100921.84
2018-10-12T20:11:32.699Z,100925.42
2018-10-12T20:14:01.316Z,100929.79
2018-10-12T20:16:29.910Z,100929.13
2018-10-12T20:18:58.492Z,100934.17
2018-10-12T20:21:27.043Z,100929.65
2018-10-12T20:23:55.714Z,100930.35
2018-10-12T20:26:24.221Z,100930.79
2018-10-12T20:28:52.888Z,100936.31
2018-10-12T20:31:21.836Z,100942.64
2018-10-12T20:33:50.485Z,100943.05
2018-10-12T20:36:19.032Z,100937.23
2018-10-12T20:38:47.905Z,100940.53
2018-10-12T20:41:16.573Z,100935.12
2018-10-12T20:43:45.184Z,100933.78
2018-10-12T20:46:13.876Z,100937.61
2018-10-12T20:48:42.472Z,100936.44
2018-10-12T20:51:11.089Z,100939.98
2018-10-12T20:53:39.701Z,100938.14
2018-10-12T20:56:09.096Z,100939.13
2018-10-12T20:58:37.657Z,100939.75
2018-10-12T21:01:06.552Z,100944.58
2018-10-12T21:03:35.145Z,100942.34
2018-10-12T21:06:03.717Z,100948.18
2018-10-12T21:08:32.377Z,100947.77
2018-10-12T21:11:00.949Z,100951.33
2018-10-12T21:13:29.528Z,100947.52
2018-10-12T21:15:58.489Z,100957.84
2018-10-12T21:18:27.033Z,100960.56
2018-10-12T21:20:55.637Z,100952.81
2018-10-12T21:23:24.284Z,100952.30
2018-10-12T21:25:52.924Z,100946.23
2018-10-12T21:28:21.624Z,100958.38
2018-10-12T21:30:50.333Z,100955.44
2018-10-12T21:33:18.877Z,100949.88
2018-10-12T21:35:47.548Z,100948.14
2018-10-12T21:38:16.157Z,100944.66
2018-10-12T21:40:44.724Z,100942.95
2018-10-12T21:43:13.324Z,100938.27
2018-10-12T21:45:41.896Z,100939.77
2018-10-12T21:48:10.436Z,100940.09
2018-10-12T21:50:39.015Z,100930.70
2018-10-12T21:53:07.604Z,100925.45
2018-10-12T21:55:36.245Z,100931.16
2018-10-12T21:58:04.777Z,100924.83
2018-10-12T22:00:33.416Z,100926.93
2018-10-12T22:03:02.009Z,100925.81
2018-10-12T22:05:30.808Z,100923.08
2018-10-12T22:07:59.427Z,100925.84
2018-10-12T22:10:28.103Z,100921.75
2018-10-12T22:12:56.772Z,100917.47
2018-10-12T22:15:25.326Z,100917.30
2018-10-12T22:17:53.879Z,100919.41
2018-10-12T22:20:22.522Z,100918.08
2018-10-12T22:22:51.231Z,100913.77
2018-10-12T22:25:19.973Z,100912.19
2018-10-12T22:27:48.606Z,100910.53
2018-10-12T22:30:17.195Z,100912.23
2018-10-12T22:32:45.736Z,100911.60
2018-10-12T22:35:14.332Z,100914.17
2018-10-12T22:37:42.988Z,100913.34
2018-10-12T22:40:11.637Z,100908.06
2018-10-12T22:42:40.369Z,100914.73
2018-10-12T22:45:09.077Z,100920.67
2018-10-12T22:47:37.708Z,100913.62
2018-10-12T22:50:06.337Z,100918.78
2018-10-12T22:52:34.936Z,100921.69
2018-10-12T22:55:03.537Z,100917.77
2018-10-12T22:57:32.095Z,100914.19
2018-10-12T23:00:00.756Z,100916.62
2018-10-12T23:02:29.304Z,100908.08
2018-10-12T23:04:57.910Z,100911.66
2018-10-12T23:07:26.533Z,100904.86
2018-10-12T23:09:55.121Z,100908.30
2018-10-12T23:12:23.689Z,100907.66
2018-10-12T23:14:52.273Z,100905.05
2018-10-12T23:17:20.953Z,100904.26
2018-10-12T23:19:49.601Z,100897.86
2018-10-12T23:22:18.169Z,100899.61
2018-10-12T23:24:46.818Z,100897.08
2018-10-12T23:27:15.664Z,100895.41
2018-10-12T23:29:44.241Z,100902.13
2018-10-12T23:32:12.792Z,100900.92
2018-10-12T23:34:41.313Z,100903.80
2018-10-12T23:37:09.893Z,100901.85
2018-10-12T23:39:38.432Z,100899.48
2018-10-12T23:42:07.148Z,100894.31
2018-10-12T23:44:35.741Z,100895.86
2018-10-12T23:47:04.415Z,100886.11
2018-10-12T23:49:32.969Z,100893.31
2018-10-12T23:52:01.569Z,100886.16
2018-10-12T23:54:30.117Z,100892.95
2018-10-12T23:56:58.676Z,100893.57
2018-10-12T23:59:27.300Z,100890.95
